CheckWX is a tool to help pilots better visualize weather data.  It is not intended as a substitute for an official pre-flight weather briefing.

00:30:34 UTC

KSOP METAR
Moore County Airport Airport
Pinehurst/Southern Pines, North Carolina, USA
Current

35 mins ago

KSOP 102356Z AUTO 05004KT 10SM VCTS FEW043 SCT095 27/24 A2985 RMK AO2 TSB14E31B55RAE06 SLP107 P0000 6//// T02670244 10333 20267 53003
Observed
Jul-10 @ 23:56 UTC
Wind
  • 050° at 4 KTS
Visibility
10 SM
Flight Rules
VFR
Conditions
Area Thunderstorm
Cloud Levels
  • Few at 4,300' AGL
  • Scattered at 9,500' AGL
Temperature
27°C / 81°F
Dewpoint
24°C / 75°F
Humidity
84%
Altimeter
29.85" Hg
Pressure
1010.82 hPa
Current Rain
0.01"
Previous

49 mins ago

KSOP 102342Z AUTO 05005KT 10SM FEW075 27/24 A2985 RMK AO2 TSB14E31RAE06 P0000
Observed
Jul-10 @ 23:42 UTC
Wind
  • 050° at 5 KTS
Visibility
10 SM
Flight Rules
VFR
Cloud Levels
  • Few at 7,500' AGL
Temperature
27°C / 81°F
Dewpoint
24°C / 75°F
Humidity
84%
Altimeter
29.85" Hg
Pressure
1010.82 hPa
Current Rain
0.01"
Previous

1 hour ago

KSOP 102314Z AUTO 13003KT 10SM TS FEW008 27/24 A2985 RMK AO2 TSB14RAE06 P0000
Observed
Jul-10 @ 23:14 UTC
Wind
  • 130° at 3 KTS
Visibility
10 SM
Flight Rules
VFR
Conditions
Thunderstorm
Cloud Levels
  • Few at 800' AGL
Temperature
27°C / 81°F
Dewpoint
24°C / 75°F
Humidity
84%
Altimeter
29.85" Hg
Pressure
1010.82 hPa
Current Rain
0.01"